sensor_id;sensor_type;location;lat;lon;timestamp;P1;durP1;ratioP1;P2;durP2;ratioP2
1577;SDS011;57623;53.608;10.004;2023-02-18T08:41:49;3.03;;;2.60;;
1577;SDS011;57623;53.608;10.004;2023-02-18T08:44:33;4.83;;;2.93;;
1577;SDS011;57623;53.608;10.004;2023-02-18T08:47:33;6.53;;;3.63;;
1577;SDS011;57623;53.608;10.004;2023-02-18T08:50:48;6.43;;;4.20;;
1577;SDS011;57623;53.608;10.004;2023-02-18T09:27:15;4.63;;;3.17;;
1577;SDS011;57623;53.608;10.004;2023-02-18T09:29:43;7.33;;;3.50;;
1577;SDS011;57623;53.608;10.004;2023-02-18T09:40:20;9.33;;;5.47;;
1577;SDS011;57623;53.608;10.004;2023-02-18T09:42:54;7.60;;;5.10;;
1577;SDS011;57623;53.608;10.004;2023-02-18T09:45:22;9.37;;;5.90;;
1577;SDS011;57623;53.608;10.004;2023-02-18T09:47:51;8.03;;;5.90;;
1577;SDS011;57623;53.608;10.004;2023-02-18T09:50:21;8.83;;;6.60;;
1577;SDS011;57623;53.608;10.004;2023-02-18T09:52:52;7.20;;;6.13;;
1577;SDS011;57623;53.608;10.004;2023-02-18T09:55:21;10.77;;;6.87;;
1577;SDS011;57623;53.608;10.004;2023-02-18T09:57:52;10.53;;;7.60;;
1577;SDS011;57623;53.608;10.004;2023-02-18T10:00:24;8.03;;;7.23;;
1577;SDS011;57623;53.608;10.004;2023-02-18T10:02:57;8.93;;;7.47;;
1577;SDS011;57623;53.608;10.004;2023-02-18T10:05:29;10.30;;;8.00;;
1577;SDS011;57623;53.608;10.004;2023-02-18T10:07:59;10.30;;;8.00;;
1577;SDS011;57623;53.608;10.004;2023-02-18T10:10:34;10.53;;;8.50;;
1577;SDS011;57623;53.608;10.004;2023-02-18T10:13:10;10.17;;;8.87;;
1577;SDS011;57623;53.608;10.004;2023-02-18T10:15:41;9.80;;;8.80;;
1577;SDS011;57623;53.608;10.004;2023-02-18T10:18:16;11.23;;;9.17;;
1577;SDS011;57623;53.608;10.004;2023-02-18T10:21:02;11.60;;;9.87;;
1577;SDS011;57623;53.608;10.004;2023-02-18T10:23:34;9.73;;;8.73;;
1577;SDS011;57623;53.608;10.004;2023-02-18T10:26:06;11.00;;;9.23;;
1577;SDS011;57623;53.608;10.004;2023-02-18T10:28:39;9.13;;;8.10;;
1577;SDS011;57623;53.608;10.004;2023-02-18T10:31:08;8.93;;;7.90;;
1577;SDS011;57623;53.608;10.004;2023-02-18T10:33:40;10.13;;;9.00;;
1577;SDS011;57623;53.608;10.004;2023-02-18T10:36:23;8.73;;;7.83;;
1577;SDS011;57623;53.608;10.004;2023-02-18T10:39:02;10.07;;;9.07;;
1577;SDS011;57623;53.608;10.004;2023-02-18T10:41:41;8.73;;;7.83;;
1577;SDS011;57623;53.608;10.004;2023-02-18T10:44:20;10.00;;;8.90;;
1577;SDS011;57623;53.608;10.004;2023-02-18T10:46:58;8.90;;;8.10;;
1577;SDS011;57623;53.608;10.004;2023-02-18T10:49:40;10.03;;;9.00;;
1577;SDS011;57623;53.608;10.004;2023-02-18T10:52:25;11.63;;;8.10;;
1577;SDS011;57623;53.608;10.004;2023-02-18T10:54:59;9.83;;;8.83;;
1577;SDS011;57623;53.608;10.004;2023-02-18T10:57:30;8.87;;;8.00;;
1577;SDS011;57623;53.608;10.004;2023-02-18T11:00:01;9.30;;;8.40;;
1577;SDS011;57623;53.608;10.004;2023-02-18T11:02:41;8.33;;;7.43;;
1577;SDS011;57623;53.608;10.004;2023-02-18T11:05:17;9.27;;;8.37;;
1577;SDS011;57623;53.608;10.004;2023-02-18T11:07:49;9.57;;;8.60;;
1577;SDS011;57623;53.608;10.004;2023-02-18T11:10:21;9.10;;;8.20;;
1577;SDS011;57623;53.608;10.004;2023-02-18T11:12:54;8.53;;;7.70;;
1577;SDS011;57623;53.608;10.004;2023-02-18T11:15:26;9.20;;;8.30;;
1577;SDS011;57623;53.608;10.004;2023-02-18T11:17:55;8.83;;;8.03;;
1577;SDS011;57623;53.608;10.004;2023-02-18T11:20:37;8.83;;;7.93;;
1577;SDS011;57623;53.608;10.004;2023-02-18T11:23:15;9.50;;;8.60;;
1577;SDS011;57623;53.608;10.004;2023-02-18T11:25:52;9.33;;;8.40;;
1577;SDS011;57623;53.608;10.004;2023-02-18T11:28:28;9.30;;;7.37;;
1577;SDS011;57623;53.608;10.004;2023-02-18T11:31:16;8.90;;;8.00;;
1577;SDS011;57623;53.608;10.004;2023-02-18T11:33:49;8.27;;;7.47;;
1577;SDS011;57623;53.608;10.004;2023-02-18T11:36:23;8.97;;;8.07;;
1577;SDS011;57623;53.608;10.004;2023-02-18T11:38:54;9.07;;;8.20;;
1577;SDS011;57623;53.608;10.004;2023-02-18T11:41:28;8.50;;;7.67;;
1577;SDS011;57623;53.608;10.004;2023-02-18T11:44:00;8.80;;;8.00;;
1577;SDS011;57623;53.608;10.004;2023-02-18T11:46:31;8.53;;;7.63;;
1577;SDS011;57623;53.608;10.004;2023-02-18T11:51:48;8.40;;;7.60;;
1577;SDS011;57623;53.608;10.004;2023-02-18T11:54:21;7.30;;;6.60;;
1577;SDS011;57623;53.608;10.004;2023-02-18T11:56:55;7.30;;;6.60;;
1577;SDS011;57623;53.608;10.004;2023-02-18T11:59:24;5.23;;;4.73;;
1577;SDS011;57623;53.608;10.004;2023-02-18T12:01:56;3.27;;;2.60;;
1577;SDS011;57623;53.608;10.004;2023-02-18T12:04:30;1.80;;;1.70;;
1577;SDS011;57623;53.608;10.004;2023-02-18T12:07:05;1.20;;;1.10;;
1577;SDS011;57623;53.608;10.004;2023-02-18T12:09:42;1.00;;;0.90;;
1577;SDS011;57623;53.608;10.004;2023-02-18T12:12:15;1.67;;;0.70;;
1577;SDS011;57623;53.608;10.004;2023-02-18T12:14:45;0.70;;;0.60;;
1577;SDS011;57623;53.608;10.004;2023-02-18T12:17:19;0.80;;;0.67;;
1577;SDS011;57623;53.608;10.004;2023-02-18T12:22:59;0.73;;;0.73;;
1577;SDS011;57623;53.608;10.004;2023-02-18T12:25:35;1.47;;;0.70;;
1577;SDS011;57623;53.608;10.004;2023-02-18T12:28:20;1.27;;;1.17;;
1577;SDS011;57623;53.608;10.004;2023-02-18T12:31:10;2.47;;;1.27;;
1577;SDS011;57623;53.608;10.004;2023-02-18T12:33:49;1.73;;;1.40;;
1577;SDS011;57623;53.608;10.004;2023-02-18T12:36:30;2.13;;;1.47;;
1577;SDS011;57623;53.608;10.004;2023-02-18T12:39:10;3.70;;;1.43;;
1577;SDS011;57623;53.608;10.004;2023-02-18T12:41:43;3.00;;;1.90;;
1577;SDS011;57623;53.608;10.004;2023-02-18T12:44:28;4.80;;;1.87;;
1577;SDS011;57623;53.608;10.004;2023-02-18T12:47:12;6.67;;;2.10;;
1577;SDS011;57623;53.608;10.004;2023-02-18T12:50:05;4.03;;;2.13;;
1577;SDS011;57623;53.608;10.004;2023-02-18T12:52:51;5.13;;;2.10;;
1577;SDS011;57623;53.608;10.004;2023-02-18T12:55:32;6.50;;;2.63;;
1577;SDS011;57623;53.608;10.004;2023-02-18T12:58:12;7.20;;;2.53;;
1577;SDS011;57623;53.608;10.004;2023-02-18T13:00:59;6.33;;;2.80;;
1577;SDS011;57623;53.608;10.004;2023-02-18T13:09:52;7.47;;;2.53;;
1577;SDS011;57623;53.608;10.004;2023-02-18T13:12:38;6.83;;;3.00;;
1577;SDS011;57623;53.608;10.004;2023-02-18T13:15:12;4.63;;;2.27;;
1577;SDS011;57623;53.608;10.004;2023-02-18T13:17:45;7.00;;;3.10;;
1577;SDS011;57623;53.608;10.004;2023-02-18T13:20:17;7.63;;;2.90;;
1577;SDS011;57623;53.608;10.004;2023-02-18T13:22:49;8.97;;;3.07;;
1577;SDS011;57623;53.608;10.004;2023-02-18T13:25:18;6.90;;;2.50;;
1577;SDS011;57623;53.608;10.004;2023-02-18T13:27:49;9.27;;;3.50;;
1577;SDS011;57623;53.608;10.004;2023-02-18T13:30:25;8.07;;;3.97;;
1577;SDS011;57623;53.608;10.004;2023-02-18T13:33:00;11.50;;;3.13;;
1577;SDS011;57623;53.608;10.004;2023-02-18T13:35:38;7.30;;;3.00;;
1577;SDS011;57623;53.608;10.004;2023-02-18T13:38:19;7.90;;;3.37;;
1577;SDS011;57623;53.608;10.004;2023-02-18T13:41:06;8.57;;;3.20;;
1577;SDS011;57623;53.608;10.004;2023-02-18T13:43:35;5.70;;;2.63;;
1577;SDS011;57623;53.608;10.004;2023-02-18T13:46:08;5.43;;;2.60;;
1577;SDS011;57623;53.608;10.004;2023-02-18T13:48:43;6.33;;;2.50;;
1577;SDS011;57623;53.608;10.004;2023-02-18T13:51:25;4.53;;;2.17;;
1577;SDS011;57623;53.608;10.004;2023-02-18T13:53:59;6.80;;;2.90;;
1577;SDS011;57623;53.608;10.004;2023-02-18T13:56:31;6.30;;;2.87;;
1577;SDS011;57623;53.608;10.004;2023-02-18T13:59:05;5.87;;;2.90;;
1577;SDS011;57623;53.608;10.004;2023-02-18T14:01:37;4.80;;;2.50;;
1577;SDS011;57623;53.608;10.004;2023-02-18T14:10:26;4.90;;;2.40;;
1577;SDS011;57623;53.608;10.004;2023-02-18T14:16:05;2.20;;;2.00;;
1577;SDS011;57623;53.608;10.004;2023-02-18T14:18:57;3.77;;;1.80;;
1577;SDS011;57623;53.608;10.004;2023-02-18T14:21:40;2.93;;;2.07;;
1577;SDS011;57623;53.608;10.004;2023-02-18T14:24:09;2.07;;;1.97;;
1577;SDS011;57623;53.608;10.004;2023-02-18T14:26:43;1.80;;;1.70;;
1577;SDS011;57623;53.608;10.004;2023-02-18T14:29:14;2.07;;;1.97;;
1577;SDS011;57623;53.608;10.004;2023-02-18T14:31:48;1.70;;;1.60;;
1577;SDS011;57623;53.608;10.004;2023-02-18T14:40:40;2.80;;;2.10;;
1577;SDS011;57623;53.608;10.004;2023-02-18T14:43:27;2.63;;;2.43;;
1577;SDS011;57623;53.608;10.004;2023-02-18T14:46:17;3.20;;;2.63;;
1577;SDS011;57623;53.608;10.004;2023-02-18T14:49:02;3.20;;;2.90;;
1577;SDS011;57623;53.608;10.004;2023-02-18T14:51:39;3.10;;;2.60;;
1577;SDS011;57623;53.608;10.004;2023-02-18T14:54:10;2.40;;;2.30;;
1577;SDS011;57623;53.608;10.004;2023-02-18T14:56:44;2.67;;;2.13;;
1577;SDS011;57623;53.608;10.004;2023-02-18T14:59:20;2.23;;;2.10;;
1577;SDS011;57623;53.608;10.004;2023-02-18T15:01:52;2.17;;;2.07;;
1577;SDS011;57623;53.608;10.004;2023-02-18T15:04:21;2.00;;;1.90;;
1577;SDS011;57623;53.608;10.004;2023-02-18T15:06:57;3.03;;;1.63;;
1577;SDS011;57623;53.608;10.004;2023-02-18T15:09:26;1.70;;;1.60;;
1577;SDS011;57623;53.608;10.004;2023-02-18T15:11:55;1.00;;;1.00;;
1577;SDS011;57623;53.608;10.004;2023-02-18T15:14:28;1.47;;;1.10;;
1577;SDS011;57623;53.608;10.004;2023-02-18T15:16:58;1.37;;;1.27;;
1577;SDS011;57623;53.608;10.004;2023-02-18T15:19:27;1.90;;;1.80;;
1577;SDS011;57623;53.608;10.004;2023-02-18T15:22:00;1.90;;;1.80;;
1577;SDS011;57623;53.608;10.004;2023-02-18T15:24:29;1.53;;;1.43;;
1577;SDS011;57623;53.608;10.004;2023-02-18T15:26:59;1.60;;;1.50;;
1577;SDS011;57623;53.608;10.004;2023-02-18T15:29:33;1.77;;;1.67;;
1577;SDS011;57623;53.608;10.004;2023-02-18T15:32:09;1.77;;;1.67;;
1577;SDS011;57623;53.608;10.004;2023-02-18T15:34:42;1.60;;;1.50;;
1577;SDS011;57623;53.608;10.004;2023-02-18T15:37:11;1.10;;;1.00;;
1577;SDS011;57623;53.608;10.004;2023-02-18T15:39:41;1.57;;;1.20;;
1577;SDS011;57623;53.608;10.004;2023-02-18T15:42:13;1.00;;;1.00;;
1577;SDS011;57623;53.608;10.004;2023-02-18T15:44:47;1.67;;;1.57;;
1577;SDS011;57623;53.608;10.004;2023-02-18T15:47:18;1.70;;;1.60;;
1577;SDS011;57623;53.608;10.004;2023-02-18T15:49:49;1.40;;;1.30;;
1577;SDS011;57623;53.608;10.004;2023-02-18T15:52:23;1.60;;;1.50;;
1577;SDS011;57623;53.608;10.004;2023-02-18T15:54:53;1.90;;;1.80;;
1577;SDS011;57623;53.608;10.004;2023-02-18T15:57:23;1.60;;;1.50;;
1577;SDS011;57623;53.608;10.004;2023-02-18T15:59:57;1.93;;;1.77;;
1577;SDS011;57623;53.608;10.004;2023-02-18T16:02:31;2.40;;;2.20;;
1577;SDS011;57623;53.608;10.004;2023-02-18T16:05:01;2.77;;;2.40;;
1577;SDS011;57623;53.608;10.004;2023-02-18T16:07:31;2.30;;;2.10;;
1577;SDS011;57623;53.608;10.004;2023-02-18T16:10:17;2.40;;;2.20;;
1577;SDS011;57623;53.608;10.004;2023-02-18T16:12:48;1.77;;;1.67;;
1577;SDS011;57623;53.608;10.004;2023-02-18T16:15:22;2.43;;;2.20;;
1577;SDS011;57623;53.608;10.004;2023-02-18T16:17:52;2.13;;;1.80;;
1577;SDS011;57623;53.608;10.004;2023-02-18T16:20:24;2.10;;;2.00;;
1577;SDS011;57623;53.608;10.004;2023-02-18T16:22:58;3.30;;;2.73;;
1577;SDS011;57623;53.608;10.004;2023-02-18T16:25:34;4.33;;;3.50;;
1577;SDS011;57623;53.608;10.004;2023-02-18T16:28:10;3.80;;;2.63;;
1577;SDS011;57623;53.608;10.004;2023-02-18T16:30:42;3.00;;;2.80;;
1577;SDS011;57623;53.608;10.004;2023-02-18T16:33:11;3.40;;;2.80;;
1577;SDS011;57623;53.608;10.004;2023-02-18T16:35:40;2.67;;;2.47;;
1577;SDS011;57623;53.608;10.004;2023-02-18T16:38:15;4.13;;;3.83;;
1577;SDS011;57623;53.608;10.004;2023-02-18T16:40:45;3.37;;;3.10;;
1577;SDS011;57623;53.608;10.004;2023-02-18T16:43:15;2.87;;;2.67;;
1577;SDS011;57623;53.608;10.004;2023-02-18T16:45:45;3.90;;;3.70;;
1577;SDS011;57623;53.608;10.004;2023-02-18T16:48:17;2.73;;;2.53;;
1577;SDS011;57623;53.608;10.004;2023-02-18T16:50:48;2.00;;;1.90;;
1577;SDS011;57623;53.608;10.004;2023-02-18T16:53:17;2.30;;;2.20;;
1577;SDS011;57623;53.608;10.004;2023-02-18T16:55:45;2.30;;;2.10;;
1577;SDS011;57623;53.608;10.004;2023-02-18T16:58:15;2.63;;;2.43;;
1577;SDS011;57623;53.608;10.004;2023-02-18T17:00:45;2.37;;;2.20;;
1577;SDS011;57623;53.608;10.004;2023-02-18T17:03:13;2.47;;;2.27;;
1577;SDS011;57623;53.608;10.004;2023-02-18T17:05:41;2.67;;;2.47;;
1577;SDS011;57623;53.608;10.004;2023-02-18T17:08:17;2.60;;;2.40;;
1577;SDS011;57623;53.608;10.004;2023-02-18T17:10:48;2.50;;;2.30;;
1577;SDS011;57623;53.608;10.004;2023-02-18T17:13:18;2.60;;;2.40;;
1577;SDS011;57623;53.608;10.004;2023-02-18T17:15:51;2.90;;;2.70;;
1577;SDS011;57623;53.608;10.004;2023-02-18T17:18:20;2.90;;;2.70;;
1577;SDS011;57623;53.608;10.004;2023-02-18T17:20:49;3.07;;;2.87;;
1577;SDS011;57623;53.608;10.004;2023-02-18T17:23:18;3.70;;;3.40;;
1577;SDS011;57623;53.608;10.004;2023-02-18T17:25:48;4.00;;;3.50;;
1577;SDS011;57623;53.608;10.004;2023-02-18T17:28:16;3.53;;;3.23;;
1577;SDS011;57623;53.608;10.004;2023-02-18T17:30:45;3.47;;;3.17;;
1577;SDS011;57623;53.608;10.004;2023-02-18T17:33:18;4.43;;;4.03;;
1577;SDS011;57623;53.608;10.004;2023-02-18T17:35:46;3.97;;;3.67;;
1577;SDS011;57623;53.608;10.004;2023-02-18T17:38:14;4.03;;;3.73;;
1577;SDS011;57623;53.608;10.004;2023-02-18T17:40:44;4.80;;;4.50;;
1577;SDS011;57623;53.608;10.004;2023-02-18T17:43:14;4.40;;;4.10;;
1577;SDS011;57623;53.608;10.004;2023-02-18T17:45:47;4.40;;;4.00;;
1577;SDS011;57623;53.608;10.004;2023-02-18T17:48:17;4.93;;;4.50;;
1577;SDS011;57623;53.608;10.004;2023-02-18T17:50:45;5.27;;;4.87;;
1577;SDS011;57623;53.608;10.004;2023-02-18T17:53:14;7.20;;;5.60;;
1577;SDS011;57623;53.608;10.004;2023-02-18T17:55:44;6.33;;;5.80;;
1577;SDS011;57623;53.608;10.004;2023-02-18T17:58:15;6.93;;;6.33;;
1577;SDS011;57623;53.608;10.004;2023-02-18T18:00:43;7.20;;;6.40;;
1577;SDS011;57623;53.608;10.004;2023-02-18T18:03:13;6.60;;;6.00;;
1577;SDS011;57623;53.608;10.004;2023-02-18T18:05:43;7.80;;;7.00;;
1577;SDS011;57623;53.608;10.004;2023-02-18T18:08:14;8.07;;;6.67;;
1577;SDS011;57623;53.608;10.004;2023-02-18T18:10:44;9.90;;;8.90;;
1577;SDS011;57623;53.608;10.004;2023-02-18T18:13:18;8.90;;;8.10;;
1577;SDS011;57623;53.608;10.004;2023-02-18T18:15:47;10.57;;;9.47;;
1577;SDS011;57623;53.608;10.004;2023-02-18T18:18:16;10.57;;;9.57;;
1577;SDS011;57623;53.608;10.004;2023-02-18T18:20:47;11.60;;;10.43;;
1577;SDS011;57623;53.608;10.004;2023-02-18T18:23:18;10.63;;;9.50;;
1577;SDS011;57623;53.608;10.004;2023-02-18T18:25:48;9.33;;;8.37;;
1577;SDS011;57623;53.608;10.004;2023-02-18T18:28:17;10.20;;;9.20;;
1577;SDS011;57623;53.608;10.004;2023-02-18T18:30:45;9.77;;;8.87;;
1577;SDS011;57623;53.608;10.004;2023-02-18T18:33:15;9.27;;;8.33;;
1577;SDS011;57623;53.608;10.004;2023-02-18T18:35:47;9.10;;;8.23;;
1577;SDS011;57623;53.608;10.004;2023-02-18T18:38:17;10.17;;;8.93;;
1577;SDS011;57623;53.608;10.004;2023-02-18T18:40:47;9.40;;;8.30;;
1577;SDS011;57623;53.608;10.004;2023-02-18T18:43:16;9.70;;;8.70;;
1577;SDS011;57623;53.608;10.004;2023-02-18T18:45:46;10.50;;;9.50;;
1577;SDS011;57623;53.608;10.004;2023-02-18T18:48:15;10.33;;;9.27;;
1577;SDS011;57623;53.608;10.004;2023-02-18T18:50:46;11.47;;;9.90;;
1577;SDS011;57623;53.608;10.004;2023-02-18T18:53:16;13.23;;;9.30;;
1577;SDS011;57623;53.608;10.004;2023-02-18T18:55:46;10.67;;;9.53;;
1577;SDS011;57623;53.608;10.004;2023-02-18T18:58:16;10.60;;;9.23;;
1577;SDS011;57623;53.608;10.004;2023-02-18T19:00:46;10.17;;;9.20;;
1577;SDS011;57623;53.608;10.004;2023-02-18T19:03:17;11.70;;;10.50;;
1577;SDS011;57623;53.608;10.004;2023-02-18T19:05:47;11.20;;;10.03;;
1577;SDS011;57623;53.608;10.004;2023-02-18T19:08:16;11.43;;;10.23;;
1577;SDS011;57623;53.608;10.004;2023-02-18T19:10:46;10.93;;;9.73;;
1577;SDS011;57623;53.608;10.004;2023-02-18T19:13:15;13.10;;;11.30;;
1577;SDS011;57623;53.608;10.004;2023-02-18T19:15:45;12.30;;;11.00;;
1577;SDS011;57623;53.608;10.004;2023-02-18T19:18:14;11.83;;;10.60;;
1577;SDS011;57623;53.608;10.004;2023-02-18T19:20:43;12.13;;;10.93;;
1577;SDS011;57623;53.608;10.004;2023-02-18T19:23:13;12.50;;;11.20;;
1577;SDS011;57623;53.608;10.004;2023-02-18T19:25:41;14.83;;;13.17;;
1577;SDS011;57623;53.608;10.004;2023-02-18T19:28:10;13.00;;;11.70;;
1577;SDS011;57623;53.608;10.004;2023-02-18T19:30:40;15.10;;;13.40;;
1577;SDS011;57623;53.608;10.004;2023-02-18T19:33:09;15.90;;;14.20;;
1577;SDS011;57623;53.608;10.004;2023-02-18T19:35:39;16.30;;;14.50;;
1577;SDS011;57623;53.608;10.004;2023-02-18T19:38:09;14.73;;;13.23;;
1577;SDS011;57623;53.608;10.004;2023-02-18T19:40:40;15.20;;;13.60;;
1577;SDS011;57623;53.608;10.004;2023-02-18T19:43:09;14.90;;;13.40;;
1577;SDS011;57623;53.608;10.004;2023-02-18T19:45:38;16.87;;;15.10;;
1577;SDS011;57623;53.608;10.004;2023-02-18T19:48:08;17.30;;;15.60;;
1577;SDS011;57623;53.608;10.004;2023-02-18T19:50:38;17.63;;;15.93;;
1577;SDS011;57623;53.608;10.004;2023-02-18T19:53:07;15.73;;;14.10;;
1577;SDS011;57623;53.608;10.004;2023-02-18T19:55:35;17.13;;;14.93;;
1577;SDS011;57623;53.608;10.004;2023-02-18T19:58:05;17.43;;;15.00;;
1577;SDS011;57623;53.608;10.004;2023-02-18T20:00:33;18.43;;;16.53;;
1577;SDS011;57623;53.608;10.004;2023-02-18T20:03:01;19.17;;;17.13;;
1577;SDS011;57623;53.608;10.004;2023-02-18T20:05:29;17.87;;;16.00;;
1577;SDS011;57623;53.608;10.004;2023-02-18T20:07:57;18.10;;;16.10;;
1577;SDS011;57623;53.608;10.004;2023-02-18T20:10:25;16.07;;;14.47;;
1577;SDS011;57623;53.608;10.004;2023-02-18T20:12:54;14.93;;;13.43;;
1577;SDS011;57623;53.608;10.004;2023-02-18T20:15:23;13.80;;;12.40;;
1577;SDS011;57623;53.608;10.004;2023-02-18T20:17:51;13.13;;;11.83;;
1577;SDS011;57623;53.608;10.004;2023-02-18T20:20:19;14.10;;;12.57;;
1577;SDS011;57623;53.608;10.004;2023-02-18T20:22:47;12.80;;;11.50;;
1577;SDS011;57623;53.608;10.004;2023-02-18T20:25:15;11.20;;;10.00;;
1577;SDS011;57623;53.608;10.004;2023-02-18T20:27:43;11.07;;;9.97;;
1577;SDS011;57623;53.608;10.004;2023-02-18T20:30:27;11.90;;;10.43;;
1577;SDS011;57623;53.608;10.004;2023-02-18T20:32:55;10.80;;;9.30;;
1577;SDS011;57623;53.608;10.004;2023-02-18T20:35:23;14.13;;;12.20;;
1577;SDS011;57623;53.608;10.004;2023-02-18T20:37:51;13.43;;;11.90;;
1577;SDS011;57623;53.608;10.004;2023-02-18T20:40:19;14.03;;;12.17;;
1577;SDS011;57623;53.608;10.004;2023-02-18T20:42:47;11.90;;;9.33;;
1577;SDS011;57623;53.608;10.004;2023-02-18T20:45:15;11.50;;;10.40;;
1577;SDS011;57623;53.608;10.004;2023-02-18T20:47:45;11.43;;;9.83;;
1577;SDS011;57623;53.608;10.004;2023-02-18T20:50:13;10.70;;;9.60;;
1577;SDS011;57623;53.608;10.004;2023-02-18T20:52:41;10.10;;;9.00;;
1577;SDS011;57623;53.608;10.004;2023-02-18T20:55:09;11.50;;;9.30;;
1577;SDS011;57623;53.608;10.004;2023-02-18T20:57:37;10.10;;;9.10;;
1577;SDS011;57623;53.608;10.004;2023-02-18T21:00:05;9.43;;;8.43;;
1577;SDS011;57623;53.608;10.004;2023-02-18T21:02:34;9.23;;;8.33;;
1577;SDS011;57623;53.608;10.004;2023-02-18T21:05:03;9.03;;;8.10;;
1577;SDS011;57623;53.608;10.004;2023-02-18T21:07:32;8.37;;;7.53;;
1577;SDS011;57623;53.608;10.004;2023-02-18T21:10:00;7.87;;;6.97;;
1577;SDS011;57623;53.608;10.004;2023-02-18T21:12:29;7.27;;;6.60;;
1577;SDS011;57623;53.608;10.004;2023-02-18T21:14:57;7.27;;;6.57;;
1577;SDS011;57623;53.608;10.004;2023-02-18T21:17:25;6.50;;;5.90;;
1577;SDS011;57623;53.608;10.004;2023-02-18T21:19:53;6.80;;;6.17;;
1577;SDS011;57623;53.608;10.004;2023-02-18T21:22:22;6.37;;;5.80;;
1577;SDS011;57623;53.608;10.004;2023-02-18T21:24:50;8.33;;;6.73;;
1577;SDS011;57623;53.608;10.004;2023-02-18T21:27:18;6.93;;;5.60;;
1577;SDS011;57623;53.608;10.004;2023-02-18T21:29:46;6.90;;;6.20;;
1577;SDS011;57623;53.608;10.004;2023-02-18T21:32:14;6.83;;;6.13;;
1577;SDS011;57623;53.608;10.004;2023-02-18T21:34:42;8.03;;;6.83;;
1577;SDS011;57623;53.608;10.004;2023-02-18T21:37:10;10.57;;;7.30;;
1577;SDS011;57623;53.608;10.004;2023-02-18T21:39:39;7.47;;;6.77;;
1577;SDS011;57623;53.608;10.004;2023-02-18T21:42:07;7.93;;;6.63;;
1577;SDS011;57623;53.608;10.004;2023-02-18T21:44:35;7.50;;;6.80;;
1577;SDS011;57623;53.608;10.004;2023-02-18T21:47:08;7.27;;;6.57;;
1577;SDS011;57623;53.608;10.004;2023-02-18T21:49:37;7.37;;;6.67;;
1577;SDS011;57623;53.608;10.004;2023-02-18T21:52:05;7.33;;;6.60;;
1577;SDS011;57623;53.608;10.004;2023-02-18T21:54:36;6.73;;;5.80;;
1577;SDS011;57623;53.608;10.004;2023-02-18T21:57:08;7.53;;;6.30;;
1577;SDS011;57623;53.608;10.004;2023-02-18T21:59:38;7.10;;;6.40;;
1577;SDS011;57623;53.608;10.004;2023-02-18T22:02:07;5.97;;;5.37;;
1577;SDS011;57623;53.608;10.004;2023-02-18T22:04:41;6.50;;;5.37;;
1577;SDS011;57623;53.608;10.004;2023-02-18T22:07:09;7.40;;;6.60;;
1577;SDS011;57623;53.608;10.004;2023-02-18T22:09:37;8.70;;;6.97;;
1577;SDS011;57623;53.608;10.004;2023-02-18T22:12:06;8.37;;;6.67;;
1577;SDS011;57623;53.608;10.004;2023-02-18T22:14:35;10.20;;;9.10;;
1577;SDS011;57623;53.608;10.004;2023-02-18T22:17:03;7.70;;;6.70;;
1577;SDS011;57623;53.608;10.004;2023-02-18T22:19:32;6.77;;;6.07;;
1577;SDS011;57623;53.608;10.004;2023-02-18T22:22:00;7.17;;;5.93;;
1577;SDS011;57623;53.608;10.004;2023-02-18T22:24:28;8.40;;;5.77;;
1577;SDS011;57623;53.608;10.004;2023-02-18T22:26:56;6.93;;;6.23;;
1577;SDS011;57623;53.608;10.004;2023-02-18T22:29:28;11.27;;;6.73;;
1577;SDS011;57623;53.608;10.004;2023-02-18T22:31:57;7.77;;;6.97;;
1577;SDS011;57623;53.608;10.004;2023-02-18T22:34:25;9.10;;;7.63;;
1577;SDS011;57623;53.608;10.004;2023-02-18T22:36:53;8.20;;;7.40;;
1577;SDS011;57623;53.608;10.004;2023-02-18T22:39:21;9.20;;;8.20;;
1577;SDS011;57623;53.608;10.004;2023-02-18T22:41:49;8.57;;;7.30;;
1577;SDS011;57623;53.608;10.004;2023-02-18T22:44:17;8.73;;;7.60;;
1577;SDS011;57623;53.608;10.004;2023-02-18T22:46:47;12.37;;;8.37;;
1577;SDS011;57623;53.608;10.004;2023-02-18T22:49:15;9.10;;;8.20;;
1577;SDS011;57623;53.608;10.004;2023-02-18T22:51:43;10.20;;;8.20;;
1577;SDS011;57623;53.608;10.004;2023-02-18T22:54:11;8.83;;;7.87;;
1577;SDS011;57623;53.608;10.004;2023-02-18T22:56:41;9.67;;;8.63;;
1577;SDS011;57623;53.608;10.004;2023-02-18T22:59:09;9.53;;;8.63;;
1577;SDS011;57623;53.608;10.004;2023-02-18T23:01:38;11.30;;;9.43;;
1577;SDS011;57623;53.608;10.004;2023-02-18T23:04:09;10.33;;;8.20;;
1577;SDS011;57623;53.608;10.004;2023-02-18T23:06:39;9.30;;;8.30;;
1577;SDS011;57623;53.608;10.004;2023-02-18T23:09:09;10.23;;;8.20;;
1577;SDS011;57623;53.608;10.004;2023-02-18T23:11:39;10.93;;;7.90;;
1577;SDS011;57623;53.608;10.004;2023-02-18T23:14:07;10.23;;;8.87;;
1577;SDS011;57623;53.608;10.004;2023-02-18T23:16:44;10.90;;;8.20;;
1577;SDS011;57623;53.608;10.004;2023-02-18T23:19:32;9.83;;;7.63;;
1577;SDS011;57623;53.608;10.004;2023-02-18T23:22:01;10.50;;;8.43;;
1577;SDS011;57623;53.608;10.004;2023-02-18T23:24:30;10.27;;;8.50;;
1577;SDS011;57623;53.608;10.004;2023-02-18T23:26:59;13.10;;;7.80;;
1577;SDS011;57623;53.608;10.004;2023-02-18T23:29:27;8.90;;;8.00;;
1577;SDS011;57623;53.608;10.004;2023-02-18T23:31:55;10.53;;;8.60;;
1577;SDS011;57623;53.608;10.004;2023-02-18T23:34:23;10.63;;;7.50;;
1577;SDS011;57623;53.608;10.004;2023-02-18T23:36:53;9.67;;;7.30;;
1577;SDS011;57623;53.608;10.004;2023-02-18T23:39:21;8.87;;;7.17;;
1577;SDS011;57623;53.608;10.004;2023-02-18T23:41:50;9.87;;;7.23;;
1577;SDS011;57623;53.608;10.004;2023-02-18T23:44:19;7.40;;;6.20;;
1577;SDS011;57623;53.608;10.004;2023-02-18T23:46:48;7.70;;;6.63;;
1577;SDS011;57623;53.608;10.004;2023-02-18T23:49:16;10.20;;;6.40;;
1577;SDS011;57623;53.608;10.004;2023-02-18T23:51:45;8.63;;;6.33;;
1577;SDS011;57623;53.608;10.004;2023-02-18T23:54:14;9.53;;;6.20;;
1577;SDS011;57623;53.608;10.004;2023-02-18T23:56:43;11.47;;;5.93;;
1577;SDS011;57623;53.608;10.004;2023-02-18T23:59:11;8.47;;;6.33;;
